Time;durP1;ratioP1;P1;durP2;ratioP2;P2;SDS_P1;SDS_P2;PMS_P1;PMS_P2;Temp;Humidity;BMP_temperature;BMP_pressure;BME280_temperature;BME280_humidity;BME280_pressure;Samples;Min_cycle;Max_cycle;Signal;HPM_P1;HPM_P2
2022/05/31 00:00:26;;;;;;;3.90;1.77;;;8.20;94.30;;;;;;5004163;28;20512;-71
2022/05/31 00:02:54;;;;;;;1.83;1.10;;;8.10;94.30;;;;;;5001725;28;20197;-71
2022/05/31 00:05:19;;;;;;;3.40;1.67;;;8.00;94.60;;;;;;4994411;28;20195;-71
2022/05/31 00:07:45;;;;;;;14.23;1.47;;;8.00;94.90;;;;;;5004236;28;20434;-71
2022/05/31 00:10:13;;;;;;;2.77;1.60;;;7.90;95.10;;;;;;5004799;28;20218;-74
2022/05/31 00:12:40;;;;;;;4.00;1.43;;;7.90;95.40;;;;;;5000244;28;20579;-70
2022/05/31 00:15:07;;;;;;;2.83;1.43;;;7.80;95.60;;;;;;5006527;28;20464;-70
2022/05/31 00:17:32;;;;;;;6.70;1.33;;;7.80;95.60;;;;;;5006782;28;20545;-71
2022/05/31 00:19:58;;;;;;;6.57;1.70;;;7.80;95.80;;;;;;5003976;28;20937;-72
2022/05/31 00:22:26;;;;;;;2.20;1.30;;;7.70;96.20;;;;;;5003859;28;20802;-72
2022/05/31 00:24:52;;;;;;;3.80;1.60;;;7.60;96.10;;;;;;5009247;28;20614;-71
2022/05/31 00:27:21;;;;;;;3.20;1.60;;;7.60;96.50;;;;;;4995199;28;20442;-71
2022/05/31 00:29:47;;;;;;;3.40;1.57;;;7.50;96.30;;;;;;5005675;28;20536;-72
2022/05/31 00:32:15;;;;;;;2.17;1.10;;;7.50;96.90;;;;;;5006474;28;20434;-70
2022/05/31 00:34:45;;;;;;;4.90;1.30;;;7.40;96.80;;;;;;5007257;28;20529;-73
2022/05/31 00:37:12;;;;;;;3.20;1.60;;;7.40;97.40;;;;;;5003400;28;20450;-71
2022/05/31 00:39:38;;;;;;;4.03;1.53;;;7.30;97.40;;;;;;4993687;28;20519;-71
2022/05/31 00:42:09;;;;;;;3.13;1.80;;;7.30;97.60;;;;;;5004050;28;21024;-70
2022/05/31 00:44:36;;;;;;;3.30;1.67;;;7.40;97.40;;;;;;5004695;28;20443;-70
2022/05/31 00:47:07;;;;;;;3.83;1.73;;;7.40;97.70;;;;;;5006778;28;20503;-71
2022/05/31 00:49:37;;;;;;;6.40;1.63;;;7.40;97.80;;;;;;4991398;28;20557;-71
2022/05/31 00:52:32;;;;;;;3.13;1.53;;;7.40;97.90;;;;;;4999635;28;20449;-71
2022/05/31 00:55:19;;;;;;;2.50;1.30;;;7.30;97.90;;;;;;4989264;28;20441;-72
2022/05/31 00:58:01;;;;;;;4.37;2.23;;;7.30;97.90;;;;;;5001908;28;20434;-71
2022/05/31 01:00:27;;;;;;;3.30;1.60;;;7.20;98.70;;;;;;5005621;28;20482;-71
2022/05/31 01:02:54;;;;;;;2.37;1.60;;;7.10;98.50;;;;;;5005317;28;20425;-71
2022/05/31 01:05:21;;;;;;;3.10;1.30;;;7.00;99.00;;;;;;5006893;28;20422;-70
2022/05/31 01:07:46;;;;;;;3.70;1.53;;;7.10;98.90;;;;;;4992732;28;20452;-72
2022/05/31 01:10:14;;;;;;;3.93;1.83;;;7.10;99.20;;;;;;4996857;28;20945;-72
2022/05/31 01:12:42;;;;;;;4.80;1.67;;;7.10;99.10;;;;;;5004535;28;20229;-71
2022/05/31 01:15:12;;;;;;;3.17;1.83;;;7.10;98.90;;;;;;5006302;28;20437;-73
2022/05/31 01:17:41;;;;;;;2.63;1.37;;;7.20;98.90;;;;;;5005489;28;20434;-72
2022/05/31 01:20:08;;;;;;;13.73;2.40;;;7.20;99.10;;;;;;5002211;28;20830;-70
2022/05/31 01:22:37;;;;;;;3.17;1.63;;;7.20;99.10;;;;;;5001718;28;20472;-71
2022/05/31 01:25:21;;;;;;;2.07;1.20;;;7.20;99.60;;;;;;5003987;28;20433;-70
2022/05/31 01:28:02;;;;;;;2.93;1.43;;;7.10;99.50;;;;;;5001730;28;20450;-72
2022/05/31 01:30:35;;;;;;;3.77;1.90;;;7.10;99.80;;;;;;4994729;28;20505;-72
2022/05/31 01:33:07;;;;;;;3.20;1.60;;;7.20;99.90;;;;;;5003364;28;20434;-70
2022/05/31 01:35:34;;;;;;;3.00;1.70;;;7.10;99.80;;;;;;4991131;28;20534;-71
2022/05/31 01:38:33;;;;;;;2.47;1.50;;;7.20;99.90;;;;;;4983805;28;20427;-71
2022/05/31 01:41:08;;;;;;;2.60;1.40;;;7.20;99.70;;;;;;4998394;28;20469;-71
2022/05/31 01:43:34;;;;;;;2.70;2.00;;;7.10;99.90;;;;;;4997983;28;21045;-71
2022/05/31 01:46:06;;;;;;;3.10;1.80;;;7.10;99.90;;;;;;5005498;28;20462;-69
2022/05/31 01:48:35;;;;;;;2.97;1.70;;;7.00;99.90;;;;;;4995434;28;20184;-71
2022/05/31 01:51:01;;;;;;;5.43;1.70;;;7.00;99.90;;;;;;4995202;28;20524;-70
2022/05/31 01:53:27;;;;;;;5.43;2.13;;;7.00;99.90;;;;;;4999052;28;20429;-70
2022/05/31 01:55:54;;;;;;;3.43;2.03;;;7.10;99.90;;;;;;5001948;28;20430;-70
2022/05/31 01:58:25;;;;;;;4.23;1.43;;;7.10;99.90;;;;;;4996049;28;20536;-73
2022/05/31 02:00:51;;;;;;;4.13;2.47;;;7.10;99.90;;;;;;5005114;28;20529;-72
2022/05/31 02:03:19;;;;;;;4.10;1.53;;;7.10;99.90;;;;;;4998336;28;20418;-71
2022/05/31 02:05:50;;;;;;;4.20;1.93;;;7.10;99.90;;;;;;4989119;28;20431;-72
2022/05/31 02:08:18;;;;;;;4.57;1.40;;;7.20;99.90;;;;;;5005183;28;20425;-71
2022/05/31 02:10:45;;;;;;;3.63;1.90;;;7.20;99.90;;;;;;4994377;28;21151;-71
2022/05/31 02:13:11;;;;;;;3.07;1.53;;;7.10;99.90;;;;;;5003032;28;20476;-71
2022/05/31 02:15:37;;;;;;;5.00;1.80;;;7.00;99.90;;;;;;5004303;28;20545;-71
2022/05/31 02:18:03;;;;;;;3.40;1.47;;;7.00;99.90;;;;;;4998880;28;20546;-71
2022/05/31 02:20:28;;;;;;;4.37;1.30;;;7.00;99.90;;;;;;4996983;28;20266;-71
2022/05/31 02:22:54;;;;;;;3.17;1.60;;;6.90;99.90;;;;;;5003262;28;20493;-71
2022/05/31 02:25:20;;;;;;;4.00;1.80;;;6.80;99.90;;;;;;4998660;28;20230;-71
2022/05/31 02:27:46;;;;;;;4.40;1.30;;;6.80;99.90;;;;;;5002269;28;20199;-71
2022/05/31 02:30:12;;;;;;;5.43;1.57;;;6.80;99.90;;;;;;5002837;28;20226;-71
2022/05/31 02:32:39;;;;;;;2.90;1.70;;;6.80;99.90;;;;;;5003739;28;20855;-71
2022/05/31 02:35:06;;;;;;;3.73;1.47;;;6.80;99.90;;;;;;4997196;28;20442;-71
2022/05/31 02:37:31;;;;;;;3.77;1.30;;;6.80;99.90;;;;;;4991471;28;20515;-69
2022/05/31 02:39:57;;;;;;;3.33;1.83;;;6.80;99.90;;;;;;5005159;28;20930;-70
2022/05/31 02:42:23;;;;;;;4.80;1.53;;;6.80;99.90;;;;;;4996912;28;20198;-71
2022/05/31 02:44:51;;;;;;;2.73;1.50;;;6.80;99.90;;;;;;5001162;28;20322;-71
2022/05/31 02:47:17;;;;;;;3.37;2.17;;;6.60;99.90;;;;;;5003294;28;20214;-70
2022/05/31 02:49:44;;;;;;;2.93;1.70;;;6.50;99.90;;;;;;5001399;28;20477;-70
2022/05/31 02:52:11;;;;;;;2.30;1.33;;;6.50;99.90;;;;;;4997001;28;20513;-70
2022/05/31 02:54:36;;;;;;;2.67;1.57;;;6.40;99.90;;;;;;4999963;28;20450;-71
2022/05/31 02:57:03;;;;;;;3.63;1.40;;;6.50;99.90;;;;;;4997521;28;21033;-71
2022/05/31 02:59:28;;;;;;;3.87;1.60;;;6.40;99.90;;;;;;5004721;28;20222;-72
2022/05/31 03:01:54;;;;;;;3.10;1.90;;;6.40;99.90;;;;;;5001295;28;20429;-71
2022/05/31 03:04:21;;;;;;;3.80;1.70;;;6.40;99.90;;;;;;5004735;28;20658;-71
2022/05/31 03:06:46;;;;;;;3.90;1.73;;;6.40;99.90;;;;;;4997682;28;20191;-70
2022/05/31 03:09:12;;;;;;;3.43;1.93;;;6.50;99.90;;;;;;5003495;28;20796;-70
2022/05/31 03:11:47;;;;;;;6.23;1.70;;;6.50;99.90;;;;;;5003648;28;20183;-71
2022/05/31 03:14:20;;;;;;;3.47;1.60;;;6.50;99.90;;;;;;5000700;28;20431;-68
2022/05/31 03:16:52;;;;;;;3.17;1.63;;;6.50;99.90;;;;;;5004844;28;20480;-73
2022/05/31 03:19:26;;;;;;;3.20;1.60;;;6.50;99.90;;;;;;4992224;28;20465;-73
2022/05/31 03:21:57;;;;;;;5.00;2.33;;;6.50;99.90;;;;;;4998558;28;20539;-70
2022/05/31 03:24:33;;;;;;;2.00;1.13;;;6.40;99.90;;;;;;5007487;28;20430;-70
2022/05/31 03:27:01;;;;;;;3.37;1.57;;;6.40;99.90;;;;;;5005168;28;20544;-71
2022/05/31 03:29:27;;;;;;;3.83;1.80;;;6.40;99.90;;;;;;5002562;28;20477;-71
2022/05/31 03:31:53;;;;;;;5.13;2.30;;;6.40;99.90;;;;;;5005374;28;20450;-71
2022/05/31 03:34:19;;;;;;;2.30;1.30;;;6.30;99.90;;;;;;5004889;28;20238;-70
2022/05/31 03:36:44;;;;;;;2.47;1.40;;;6.30;99.90;;;;;;4994982;28;20192;-71
2022/05/31 03:39:10;;;;;;;3.93;1.63;;;6.30;99.90;;;;;;5002575;28;20928;-72
2022/05/31 03:41:36;;;;;;;2.93;1.60;;;6.20;99.90;;;;;;5006161;28;20206;-71
2022/05/31 03:44:02;;;;;;;2.30;1.40;;;6.30;99.90;;;;;;4998996;28;20196;-72
2022/05/31 03:46:28;;;;;;;6.43;1.30;;;6.30;99.90;;;;;;5004557;28;20195;-69
2022/05/31 03:48:53;;;;;;;6.60;2.17;;;6.40;99.90;;;;;;5000063;28;21123;-72
2022/05/31 03:51:19;;;;;;;2.07;1.23;;;6.30;99.90;;;;;;5004644;28;20574;-70
2022/05/31 03:53:45;;;;;;;4.27;2.07;;;6.30;99.90;;;;;;5007067;28;20298;-70
2022/05/31 03:56:12;;;;;;;5.70;2.53;;;6.40;99.90;;;;;;4997540;28;20191;-71
2022/05/31 03:58:39;;;;;;;5.50;2.37;;;6.40;99.90;;;;;;4998031;28;20195;-71
2022/05/31 04:01:04;;;;;;;6.30;2.60;;;6.50;99.90;;;;;;5004824;28;20434;-71
2022/05/31 04:03:31;;;;;;;6.47;2.50;;;6.40;99.90;;;;;;4996632;28;20445;-72
2022/05/31 04:05:56;;;;;;;3.73;2.07;;;6.40;99.90;;;;;;5000029;28;20183;-70
2022/05/31 04:08:24;;;;;;;3.37;2.00;;;6.40;99.90;;;;;;5007170;28;20430;-73
2022/05/31 04:10:50;;;;;;;2.60;1.53;;;6.40;99.90;;;;;;4998103;28;20227;-71
2022/05/31 04:13:17;;;;;;;6.57;2.83;;;6.40;99.90;;;;;;5003963;28;20441;-71
2022/05/31 04:15:43;;;;;;;5.03;2.77;;;6.50;99.90;;;;;;5007588;28;20422;-72
2022/05/31 04:18:09;;;;;;;6.57;1.93;;;6.50;99.90;;;;;;5000323;28;20454;-71
2022/05/31 04:20:37;;;;;;;3.80;1.70;;;6.50;99.90;;;;;;5000359;28;20211;-70
2022/05/31 04:25:48;;;;;;;4.27;2.00;;;6.60;99.90;;;;;;5003662;28;20529;-70
2022/05/31 04:28:15;;;;;;;6.77;2.87;;;6.60;99.90;;;;;;5005755;28;20442;-70
2022/05/31 04:30:46;;;;;;;9.53;4.27;;;6.70;99.90;;;;;;5000253;28;20544;-70
2022/05/31 04:33:12;;;;;;;8.63;4.00;;;6.70;99.90;;;;;;4999325;28;20434;-72
2022/05/31 04:35:38;;;;;;;5.47;2.80;;;6.80;99.90;;;;;;5005829;28;21370;-70
2022/05/31 04:38:03;;;;;;;5.93;3.30;;;6.80;99.90;;;;;;5005450;28;20765;-74
2022/05/31 04:40:29;;;;;;;4.93;2.53;;;6.80;99.90;;;;;;5005237;28;20215;-71
2022/05/31 04:42:54;;;;;;;4.80;2.50;;;6.90;99.90;;;;;;4998079;28;20322;-70
2022/05/31 04:45:20;;;;;;;3.60;1.97;;;7.00;99.90;;;;;;5004510;28;20191;-70
2022/05/31 04:47:46;;;;;;;2.17;1.37;;;7.10;99.90;;;;;;4993666;28;20198;-72
2022/05/31 04:50:12;;;;;;;3.53;1.63;;;7.20;99.90;;;;;;4999572;28;20577;-71
2022/05/31 04:52:37;;;;;;;3.13;1.43;;;7.30;99.90;;;;;;5006036;28;20198;-71
2022/05/31 04:55:04;;;;;;;2.53;1.40;;;7.30;99.90;;;;;;5013993;28;20198;-70
2022/05/31 04:57:30;;;;;;;3.50;1.60;;;7.40;99.90;;;;;;4996320;28;20829;-72
2022/05/31 04:59:55;;;;;;;3.57;1.50;;;7.50;99.90;;;;;;5006709;28;20568;-70
2022/05/31 05:02:21;;;;;;;3.00;1.40;;;7.60;99.90;;;;;;5004800;28;20207;-72
2022/05/31 05:04:47;;;;;;;3.70;1.37;;;7.70;99.90;;;;;;5001011;28;20585;-70
2022/05/31 05:07:13;;;;;;;3.83;1.53;;;7.70;99.90;;;;;;5004557;28;20262;-70
2022/05/31 05:09:38;;;;;;;4.37;1.53;;;7.80;99.90;;;;;;4994921;28;20469;-72
2022/05/31 05:12:04;;;;;;;2.80;1.53;;;7.90;99.90;;;;;;4992854;28;20195;-71
2022/05/31 05:14:30;;;;;;;2.93;1.60;;;8.00;99.90;;;;;;4999374;28;20546;-72
2022/05/31 05:16:56;;;;;;;1.97;0.97;;;8.10;99.90;;;;;;4993431;28;20447;-71
2022/05/31 05:19:22;;;;;;;2.47;1.47;;;8.20;99.90;;;;;;4997425;28;20231;-70
2022/05/31 05:21:48;;;;;;;3.43;1.63;;;8.20;99.90;;;;;;4990888;28;20452;-71
2022/05/31 05:24:13;;;;;;;4.53;1.70;;;8.30;99.90;;;;;;4999761;28;20197;-71
2022/05/31 05:26:39;;;;;;;3.63;1.50;;;8.50;99.90;;;;;;5001499;28;20187;-72
2022/05/31 05:31:53;;;;;;;2.80;1.47;;;8.80;99.90;;;;;;4990353;28;20223;-72
2022/05/31 05:34:19;;;;;;;3.53;1.83;;;9.00;99.90;;;;;;4997088;28;20927;-71
2022/05/31 05:36:45;;;;;;;10.00;2.70;;;9.20;99.90;;;;;;5001468;28;20426;-72
2022/05/31 05:39:11;;;;;;;4.47;1.77;;;9.40;99.90;;;;;;4989897;28;20475;-72
2022/05/31 05:41:40;;;;;;;3.03;1.33;;;9.60;99.30;;;;;;5003852;28;20942;-72
2022/05/31 05:44:06;;;;;;;5.90;1.53;;;9.70;99.10;;;;;;4995220;28;20592;-71
2022/05/31 05:46:32;;;;;;;4.73;2.13;;;9.70;98.90;;;;;;4978817;28;20463;-71
2022/05/31 05:48:57;;;;;;;3.70;1.77;;;9.80;98.70;;;;;;4983930;28;20475;-71
2022/05/31 05:51:29;;;;;;;2.97;1.50;;;9.90;98.50;;;;;;4995713;28;20382;-71
2022/05/31 05:53:56;;;;;;;2.93;1.37;;;10.00;98.20;;;;;;4992245;28;20191;-70
2022/05/31 05:56:23;;;;;;;2.40;1.30;;;10.10;97.60;;;;;;4999319;28;20434;-70
2022/05/31 05:58:49;;;;;;;10.73;2.20;;;10.30;97.60;;;;;;4987587;28;20445;-72
2022/05/31 06:01:23;;;;;;;2.63;1.27;;;10.50;97.30;;;;;;4995716;28;20442;-71
2022/05/31 06:04:13;;;;;;;3.23;1.43;;;10.70;97.00;;;;;;4998817;28;20429;-71
2022/05/31 06:06:42;;;;;;;3.33;1.47;;;10.80;96.50;;;;;;4988248;28;21302;-73
2022/05/31 06:09:13;;;;;;;2.83;1.40;;;11.00;95.60;;;;;;5001918;28;20477;-71
2022/05/31 06:11:43;;;;;;;3.50;1.33;;;11.20;95.20;;;;;;4996466;28;21048;-71
2022/05/31 06:14:15;;;;;;;3.30;1.40;;;11.40;95.10;;;;;;4995314;28;20438;-71
2022/05/31 06:16:50;;;;;;;5.10;1.33;;;11.50;94.90;;;;;;4982174;28;20419;-72
2022/05/31 06:19:18;;;;;;;2.77;1.60;;;11.70;95.20;;;;;;4997403;28;20480;-71
2022/05/31 06:21:48;;;;;;;3.27;1.43;;;11.90;95.80;;;;;;4993349;28;20435;-72
2022/05/31 06:24:14;;;;;;;3.40;1.27;;;12.00;95.00;;;;;;4998795;28;20433;-74
2022/05/31 06:26:40;;;;;;;2.87;1.30;;;12.10;94.70;;;;;;5002644;28;20432;-71
2022/05/31 06:29:06;;;;;;;3.07;1.60;;;12.20;94.10;;;;;;4998845;28;20473;-71
2022/05/31 06:31:31;;;;;;;2.73;1.53;;;12.40;95.60;;;;;;5003430;28;20903;-73
2022/05/31 06:33:57;;;;;;;1.70;1.10;;;12.60;95.40;;;;;;5004419;28;21021;-71
2022/05/31 06:36:23;;;;;;;3.10;1.30;;;12.70;95.10;;;;;;5003173;28;20183;-70
2022/05/31 06:38:48;;;;;;;2.80;1.33;;;12.90;94.70;;;;;;5003491;28;20650;-71
2022/05/31 06:41:14;;;;;;;2.40;1.20;;;13.00;94.90;;;;;;5005770;28;20249;-72
2022/05/31 06:43:41;;;;;;;3.10;1.13;;;13.20;94.80;;;;;;4999597;28;20195;-73
2022/05/31 06:46:08;;;;;;;2.70;1.17;;;13.30;93.70;;;;;;5003468;28;20480;-72
2022/05/31 06:48:34;;;;;;;5.17;1.13;;;13.40;93.70;;;;;;5000134;28;20517;-71
2022/05/31 06:51:07;;;;;;;2.30;1.10;;;13.40;91.70;;;;;;5004622;28;21330;-69
2022/05/31 06:59:02;;;;;;;3.20;0.93;;;13.70;90.00;;;;;;5000984;28;20906;-71
2022/05/31 07:01:37;;;;;;;2.20;1.03;;;13.90;88.40;;;;;;5006984;28;21163;-70
2022/05/31 07:04:04;;;;;;;1.93;1.10;;;14.10;87.30;;;;;;5038946;23;20563;-75
2022/05/31 07:06:33;;;;;;;2.00;1.03;;;14.20;86.50;;;;;;5016232;28;21259;-74
2022/05/31 07:08:59;;;;;;;2.40;0.93;;;14.30;85.00;;;;;;5009809;28;20465;-74
2022/05/31 07:11:26;;;;;;;2.43;0.80;;;14.50;86.70;;;;;;5009982;28;20427;-74
2022/05/31 07:13:52;;;;;;;2.80;1.10;;;14.70;85.60;;;;;;5009963;28;20461;-75
2022/05/31 07:16:18;;;;;;;3.90;0.90;;;14.70;85.20;;;;;;5010836;28;20426;-73
2022/05/31 07:18:44;;;;;;;2.47;1.10;;;15.00;84.10;;;;;;5008461;28;20457;-75
2022/05/31 07:21:10;;;;;;;3.10;0.93;;;15.40;83.80;;;;;;5012685;28;20186;-74
2022/05/31 07:23:36;;;;;;;4.70;0.97;;;15.70;82.60;;;;;;5008005;28;20940;-74
2022/05/31 07:26:05;;;;;;;3.40;0.80;;;15.90;80.10;;;;;;5009066;28;20433;-75
2022/05/31 07:28:31;;;;;;;2.43;0.90;;;15.70;81.50;;;;;;5008681;28;20270;-74
2022/05/31 07:30:57;;;;;;;5.10;0.97;;;15.60;81.50;;;;;;5008937;28;20564;-74
2022/05/31 07:33:23;;;;;;;2.23;1.03;;;15.70;81.30;;;;;;5004569;28;20434;-74
2022/05/31 07:35:52;;;;;;;1.70;0.80;;;15.90;80.70;;;;;;5005417;28;20190;-74
2022/05/31 07:38:20;;;;;;;2.13;0.93;;;16.20;80.80;;;;;;5003243;28;20427;-74
2022/05/31 07:40:50;;;;;;;7.20;1.23;;;16.20;81.90;;;;;;5008583;28;20426;-74
2022/05/31 07:43:16;;;;;;;2.90;1.20;;;16.30;82.50;;;;;;5007769;28;20429;-74
2022/05/31 07:45:42;;;;;;;1.70;0.87;;;16.80;80.10;;;;;;5008672;28;20572;-74
2022/05/31 07:48:08;;;;;;;1.77;0.80;;;17.50;79.20;;;;;;5008116;28;20984;-74
2022/05/31 07:50:34;;;;;;;4.50;1.40;;;18.70;73.60;;;;;;5009543;28;20207;-74
2022/05/31 07:53:01;;;;;;;2.10;0.90;;;19.30;72.80;;;;;;5008606;28;20513;-75
2022/05/31 07:55:28;;;;;;;2.83;0.97;;;20.40;68.60;;;;;;5009296;28;20453;-74
2022/05/31 08:00:39;;;;;;;2.43;1.57;;;21.50;64.90;;;;;;5004176;28;20439;-72
2022/05/31 08:03:06;;;;;;;1.87;0.80;;;21.70;63.40;;;;;;5013930;28;20519;-72
2022/05/31 08:05:35;;;;;;;2.90;1.03;;;22.00;64.00;;;;;;5009352;28;20497;-72
2022/05/31 08:08:01;;;;;;;2.10;1.10;;;22.20;64.50;;;;;;5007450;28;20926;-73
2022/05/31 08:10:28;;;;;;;5.20;0.93;;;22.40;62.50;;;;;;5009611;28;20495;-72
2022/05/31 08:12:54;;;;;;;1.80;0.90;;;22.60;61.90;;;;;;5008554;28;20188;-73
2022/05/31 08:15:19;;;;;;;3.00;1.23;;;23.50;60.30;;;;;;5009374;28;20182;-72
2022/05/31 08:17:46;;;;;;;4.15;0.88;;;23.50;60.60;;;;;;5012919;28;20174;-75
2022/05/31 08:20:13;;;;;;;2.33;1.00;;;23.60;60.50;;;;;;5008100;28;20190;-73
2022/05/31 08:22:39;;;;;;;2.42;1.08;;;23.80;60.40;;;;;;5008647;28;20248;-74
2022/05/31 08:25:06;;;;;;;1.90;0.85;;;24.40;58.60;;;;;;5008130;28;20509;-73
2022/05/31 08:27:34;;;;;;;2.85;0.90;;;24.90;57.30;;;;;;5007089;28;20193;-73
2022/05/31 08:30:01;;;;;;;1.92;0.98;;;24.60;58.40;;;;;;5009101;28;20206;-73
2022/05/31 08:32:27;;;;;;;6.45;0.90;;;24.60;57.50;;;;;;5008809;28;20273;-75
2022/05/31 08:34:52;;;;;;;4.90;1.40;;;24.50;58.20;;;;;;5009109;28;20606;-75
2022/05/31 08:37:18;;;;;;;2.20;1.05;;;24.80;57.90;;;;;;5008188;28;20645;-73
2022/05/31 08:39:44;;;;;;;1.70;0.80;;;25.00;56.70;;;;;;5009312;28;20265;-73
2022/05/31 08:42:13;;;;;;;5.85;0.90;;;25.40;56.60;;;;;;5008785;28;20190;-73
2022/05/31 08:44:50;;;;;;;2.20;1.23;;;25.00;57.50;;;;;;5008711;28;20187;-73
2022/05/31 08:47:36;;;;;;;2.85;1.15;;;24.50;56.70;;;;;;5002485;28;20181;-73
2022/05/31 08:53:28;;;;;;;2.67;1.00;;;24.10;57.90;;;;;;5008783;28;20193;-79
2022/05/31 08:58:50;;;;;;;2.73;1.00;;;23.90;58.50;;;;;;4997639;28;20202;-80
2022/05/31 09:01:20;;;;;;;1.70;0.90;;;23.70;57.50;;;;;;5005157;28;20201;-77
2022/05/31 09:03:53;;;;;;;2.83;1.30;;;23.10;58.40;;;;;;5012610;28;20187;-78
2022/05/31 09:06:32;;;;;;;2.80;0.90;;;22.80;59.90;;;;;;5012173;28;20163;-77
2022/05/31 09:09:20;;;;;;;6.83;1.00;;;22.40;61.50;;;;;;5012363;28;20889;-83
2022/05/31 09:11:56;;;;;;;4.17;1.00;;;21.90;62.50;;;;;;5012668;28;20409;-80
2022/05/31 09:14:46;;;;;;;5.40;0.70;;;21.90;60.60;;;;;;5012835;28;20495;-80
2022/05/31 09:17:26;;;;;;;2.80;0.90;;;21.40;61.70;;;;;;4997339;28;20432;-80
2022/05/31 09:20:02;;;;;;;2.90;1.03;;;21.00;65.80;;;;;;5005014;28;20538;-80
2022/05/31 09:22:28;;;;;;;2.40;1.17;;;20.90;66.30;;;;;;5000388;28;20422;-81
2022/05/31 09:24:54;;;;;;;1.97;0.83;;;20.70;66.00;;;;;;5007417;28;20440;-81
2022/05/31 09:27:34;;;;;;;4.87;0.77;;;20.60;66.60;;;;;;5011440;28;20429;-79
2022/05/31 09:30:10;;;;;;;2.60;1.10;;;20.50;67.00;;;;;;5011395;28;20216;-80
2022/05/31 09:32:59;;;;;;;2.10;0.90;;;20.30;65.90;;;;;;5006680;28;20450;-80
2022/05/31 09:35:45;;;;;;;2.73;0.90;;;20.30;66.40;;;;;;5002465;28;20406;-79
2022/05/31 09:38:42;;;;;;;2.40;0.97;;;20.10;67.20;;;;;;5007355;28;20909;-80
2022/05/31 09:41:26;;;;;;;4.30;1.20;;;20.50;65.40;;;;;;5002133;28;20418;-80
2022/05/31 09:44:00;;;;;;;3.43;1.20;;;21.00;63.80;;;;;;5004534;28;20418;-77
2022/05/31 09:46:38;;;;;;;3.60;1.33;;;21.70;63.60;;;;;;4995050;28;20414;-79
2022/05/31 09:49:39;;;;;;;3.97;1.20;;;22.00;62.10;;;;;;5010993;28;20516;-78
2022/05/31 09:52:33;;;;;;;1.60;0.87;;;22.30;62.40;;;;;;4992964;28;20470;-78
2022/05/31 09:58:18;;;;;;;2.80;1.10;;;23.70;57.70;;;;;;5008205;28;20193;-80
2022/05/31 10:01:09;;;;;;;1.60;0.70;;;23.90;56.20;;;;;;5006437;28;20209;-81
2022/05/31 10:03:48;;;;;;;2.53;0.80;;;23.70;58.40;;;;;;5004180;28;20439;-81
2022/05/31 10:06:16;;;;;;;3.40;1.07;;;23.80;57.40;;;;;;5003311;28;20183;-80
2022/05/31 10:08:43;;;;;;;3.10;1.00;;;23.40;56.50;;;;;;5012345;28;20175;-81
2022/05/31 10:11:13;;;;;;;3.40;0.73;;;23.40;56.40;;;;;;5003178;28;20304;-81
2022/05/31 10:13:40;;;;;;;3.10;0.90;;;23.20;55.50;;;;;;5008896;28;20774;-81
2022/05/31 10:16:18;;;;;;;12.20;1.30;;;23.10;55.20;;;;;;4997676;28;20537;-81
2022/05/31 10:18:50;;;;;;;13.00;1.00;;;23.00;57.50;;;;;;5000977;28;20417;-81
2022/05/31 10:21:26;;;;;;;6.07;1.20;;;22.90;57.20;;;;;;5010042;28;20409;-81
2022/05/31 10:23:52;;;;;;;4.73;0.97;;;22.80;57.60;;;;;;5009270;28;20544;-80
2022/05/31 10:26:32;;;;;;;1.50;0.60;;;22.90;55.80;;;;;;5006730;28;20472;-81
2022/05/31 10:29:01;;;;;;;2.00;0.87;;;23.00;56.30;;;;;;5009473;28;20200;-81
2022/05/31 10:31:37;;;;;;;2.07;0.90;;;23.10;56.30;;;;;;5009033;28;20913;-80
2022/05/31 10:34:23;;;;;;;1.90;0.90;;;23.20;56.60;;;;;;5009954;28;20889;-80
2022/05/31 10:36:52;;;;;;;5.80;1.27;;;23.00;56.50;;;;;;5016041;28;20602;-80
2022/05/31 10:39:22;;;;;;;2.80;1.03;;;22.90;55.90;;;;;;5001825;28;20528;-78
2022/05/31 10:41:52;;;;;;;5.43;1.00;;;22.70;58.50;;;;;;5007759;28;20422;-77
2022/05/31 10:44:35;;;;;;;2.53;1.10;;;21.90;61.60;;;;;;5013117;28;20426;-79
2022/05/31 10:47:22;;;;;;;2.53;0.90;;;21.60;62.50;;;;;;4996636;28;20414;-79
2022/05/31 10:49:49;;;;;;;4.23;1.30;;;21.40;65.00;;;;;;5004579;28;20818;-79
2022/05/31 10:52:53;;;;;;;3.93;1.43;;;21.00;64.40;;;;;;5016062;28;20501;-78
2022/05/31 10:55:42;;;;;;;2.23;1.10;;;20.90;63.30;;;;;;5013751;28;20432;-78
2022/05/31 10:58:26;;;;;;;4.93;1.27;;;20.90;64.70;;;;;;4996030;28;20769;-79
2022/05/31 11:01:13;;;;;;;2.77;1.53;;;21.00;62.00;;;;;;5002711;28;20497;-79
2022/05/31 11:03:56;;;;;;;8.23;1.10;;;21.10;63.20;;;;;;5003602;28;20458;-80
2022/05/31 11:06:28;;;;;;;4.27;1.20;;;21.40;65.80;;;;;;5001948;28;20442;-79
2022/05/31 11:12:22;;;;;;;7.53;1.17;;;21.50;62.10;;;;;;5014921;28;20422;-79
2022/05/31 11:15:00;;;;;;;13.93;1.87;;;21.50;65.40;;;;;;5014438;28;20520;-79
2022/05/31 11:17:55;;;;;;;2.40;0.73;;;21.50;64.20;;;;;;5015134;28;20810;-80
2022/05/31 11:20:26;;;;;;;5.70;1.67;;;22.00;60.10;;;;;;5009835;28;20457;-80
2022/05/31 11:23:09;;;;;;;2.90;0.80;;;21.90;61.90;;;;;;5016646;28;20885;-80
2022/05/31 11:25:57;;;;;;;2.70;1.23;;;22.10;63.80;;;;;;4995449;28;20406;-79
2022/05/31 11:28:37;;;;;;;3.00;1.20;;;22.20;60.90;;;;;;5010158;28;20406;-79
2022/05/31 11:31:19;;;;;;;2.47;1.10;;;22.10;61.90;;;;;;5015274;28;20453;-79
2022/05/31 11:34:17;;;;;;;2.57;1.17;;;22.40;59.90;;;;;;5015541;28;20870;-79
2022/05/31 11:37:20;;;;;;;1.53;0.77;;;22.30;61.10;;;;;;5014179;28;20492;-76
2022/05/31 11:39:57;;;;;;;2.77;1.27;;;22.50;60.90;;;;;;5011738;28;20417;-78
2022/05/31 11:42:53;;;;;;;2.43;0.97;;;22.30;62.60;;;;;;5015306;28;20763;-78
2022/05/31 11:45:35;;;;;;;5.53;1.17;;;22.30;62.40;;;;;;5009960;28;20768;-78
2022/05/31 11:48:03;;;;;;;4.47;0.87;;;22.10;61.70;;;;;;5014260;28;20496;-78
2022/05/31 11:50:39;;;;;;;2.77;1.13;;;22.30;60.30;;;;;;5014219;28;20507;-78
2022/05/31 11:53:30;;;;;;;5.40;1.27;;;22.40;60.50;;;;;;5014848;28;20834;-77
2022/05/31 11:56:12;;;;;;;2.80;1.30;;;21.80;63.10;;;;;;5015291;28;20401;-78
2022/05/31 11:59:00;;;;;;;2.03;1.00;;;21.90;62.10;;;;;;5014504;28;20395;-78
2022/05/31 12:01:29;;;;;;;2.67;1.13;;;21.80;62.30;;;;;;4995344;28;20399;-77
2022/05/31 12:04:04;;;;;;;5.80;1.13;;;21.80;63.10;;;;;;4994764;28;20449;-78
2022/05/31 12:06:30;;;;;;;4.33;1.43;;;21.80;63.40;;;;;;4994690;28;20405;-77
2022/05/31 12:09:25;;;;;;;2.70;1.20;;;21.80;62.50;;;;;;4994158;28;20419;-78
2022/05/31 12:12:06;;;;;;;3.23;1.23;;;21.80;64.30;;;;;;4998448;28;20532;-76
2022/05/31 12:14:38;;;;;;;6.57;1.27;;;21.60;64.70;;;;;;4994599;28;20395;-76
2022/05/31 12:17:04;;;;;;;4.73;1.10;;;21.50;64.60;;;;;;4995189;28;20498;-77
2022/05/31 12:19:35;;;;;;;3.10;1.17;;;21.60;63.40;;;;;;4995327;28;20416;-77
2022/05/31 12:22:12;;;;;;;14.90;1.67;;;21.80;64.40;;;;;;4994658;28;20445;-77
2022/05/31 12:24:56;;;;;;;3.10;1.20;;;22.20;62.90;;;;;;4994351;28;20731;-75
2022/05/31 12:27:28;;;;;;;9.07;1.63;;;22.30;61.50;;;;;;4993791;28;20403;-77
2022/05/31 12:30:20;;;;;;;4.00;1.30;;;22.10;60.80;;;;;;5006914;28;20458;-78
2022/05/31 12:32:48;;;;;;;5.73;1.10;;;22.00;64.90;;;;;;5012961;28;20394;-78
2022/05/31 12:35:31;;;;;;;6.37;1.17;;;21.80;62.80;;;;;;5013296;28;20913;-78
2022/05/31 12:38:00;;;;;;;5.40;1.60;;;21.60;62.00;;;;;;5013481;28;20410;-78
2022/05/31 12:40:35;;;;;;;3.00;0.93;;;21.70;62.40;;;;;;5013511;28;20410;-79
2022/05/31 12:43:07;;;;;;;3.00;1.20;;;21.90;60.80;;;;;;5013267;28;20419;-78
2022/05/31 12:45:32;;;;;;;3.13;1.00;;;21.90;63.40;;;;;;5013400;28;20414;-78
2022/05/31 12:48:01;;;;;;;5.80;1.63;;;21.80;64.60;;;;;;5012865;28;20472;-78
2022/05/31 12:50:56;;;;;;;2.97;1.20;;;21.70;62.60;;;;;;5012959;28;20241;-80
2022/05/31 12:53:37;;;;;;;7.83;0.87;;;21.50;63.30;;;;;;5013097;28;20387;-79
2022/05/31 12:56:05;;;;;;;2.77;1.00;;;21.50;62.30;;;;;;4996923;28;20425;-77
2022/05/31 12:58:47;;;;;;;2.83;1.00;;;21.40;60.90;;;;;;5004417;28;20437;-77
2022/05/31 13:01:16;;;;;;;2.70;1.20;;;21.50;59.60;;;;;;5013230;28;20425;-76
2022/05/31 13:03:50;;;;;;;2.37;1.10;;;21.50;60.00;;;;;;4995754;28;20449;-77
2022/05/31 13:06:23;;;;;;;13.00;1.13;;;21.80;60.80;;;;;;5010694;28;20420;-77
2022/05/31 13:08:52;;;;;;;5.60;1.57;;;22.10;59.70;;;;;;4993255;28;20407;-78
2022/05/31 13:19:57;;;;;;;8.63;1.20;;;22.90;56.70;;;;;;4996536;28;20453;-77
2022/05/31 13:22:23;;;;;;;2.60;1.00;;;23.40;56.20;;;;;;4994662;28;20442;-77
2022/05/31 13:24:58;;;;;;;3.40;1.03;;;23.30;55.80;;;;;;4993305;28;20490;-78
2022/05/31 13:27:27;;;;;;;2.20;1.07;;;23.30;55.00;;;;;;5012124;28;20178;-77
2022/05/31 13:30:09;;;;;;;4.53;1.10;;;23.30;55.70;;;;;;5012291;28;20461;-78
2022/05/31 13:32:36;;;;;;;2.80;0.87;;;23.10;55.10;;;;;;5003113;28;20445;-78
2022/05/31 13:35:09;;;;;;;2.97;0.83;;;22.80;56.50;;;;;;5012369;28;20872;-78
2022/05/31 13:37:51;;;;;;;7.67;1.33;;;22.90;57.20;;;;;;5012438;28;20421;-78
2022/05/31 13:40:23;;;;;;;1.90;0.80;;;22.90;58.60;;;;;;4998975;28;20427;-81
2022/05/31 13:42:49;;;;;;;2.30;0.90;;;22.80;56.80;;;;;;5011888;28;20432;-81
2022/05/31 13:45:20;;;;;;;4.40;1.43;;;22.70;57.40;;;;;;5010578;28;20763;-78